sensor_id;sensor_type;location;lat;lon;timestamp;P1;durP1;ratioP1;P2;durP2;ratioP2
37791;SDS011;29527;55.766;37.570;2024-01-27T00:00:39;33.78;;;17.85;;
37791;SDS011;29527;55.766;37.570;2024-01-27T00:03:05;36.63;;;20.23;;
37791;SDS011;29527;55.766;37.570;2024-01-27T00:05:30;33.75;;;18.30;;
37791;SDS011;29527;55.766;37.570;2024-01-27T00:07:56;33.00;;;19.17;;
37791;SDS011;29527;55.766;37.570;2024-01-27T00:10:21;34.05;;;18.60;;
37791;SDS011;29527;55.766;37.570;2024-01-27T00:12:46;29.10;;;15.43;;
37791;SDS011;29527;55.766;37.570;2024-01-27T00:15:12;28.38;;;14.68;;
37791;SDS011;29527;55.766;37.570;2024-01-27T00:17:37;29.75;;;15.57;;
37791;SDS011;29527;55.766;37.570;2024-01-27T00:20:03;27.45;;;14.90;;
37791;SDS011;29527;55.766;37.570;2024-01-27T00:22:28;27.23;;;15.35;;
37791;SDS011;29527;55.766;37.570;2024-01-27T00:24:54;31.20;;;16.15;;
37791;SDS011;29527;55.766;37.570;2024-01-27T00:27:19;26.85;;;15.70;;
37791;SDS011;29527;55.766;37.570;2024-01-27T00:29:44;24.40;;;13.63;;
37791;SDS011;29527;55.766;37.570;2024-01-27T00:32:10;26.33;;;14.68;;
37791;SDS011;29527;55.766;37.570;2024-01-27T00:34:35;26.50;;;14.57;;
37791;SDS011;29527;55.766;37.570;2024-01-27T00:37:01;26.70;;;14.88;;
37791;SDS011;29527;55.766;37.570;2024-01-27T00:39:26;27.35;;;14.55;;
37791;SDS011;29527;55.766;37.570;2024-01-27T00:41:52;29.17;;;16.33;;
37791;SDS011;29527;55.766;37.570;2024-01-27T00:44:20;27.50;;;15.02;;
37791;SDS011;29527;55.766;37.570;2024-01-27T00:46:45;28.05;;;16.30;;
37791;SDS011;29527;55.766;37.570;2024-01-27T00:49:10;27.58;;;15.43;;
37791;SDS011;29527;55.766;37.570;2024-01-27T00:51:36;31.00;;;16.08;;
37791;SDS011;29527;55.766;37.570;2024-01-27T00:54:01;29.92;;;17.33;;
37791;SDS011;29527;55.766;37.570;2024-01-27T00:56:27;33.88;;;17.35;;
37791;SDS011;29527;55.766;37.570;2024-01-27T00:58:52;32.50;;;17.60;;
37791;SDS011;29527;55.766;37.570;2024-01-27T01:01:17;30.92;;;17.13;;
37791;SDS011;29527;55.766;37.570;2024-01-27T01:03:43;29.83;;;16.88;;
37791;SDS011;29527;55.766;37.570;2024-01-27T01:06:10;33.95;;;17.77;;
37791;SDS011;29527;55.766;37.570;2024-01-27T01:08:35;31.65;;;17.65;;
37791;SDS011;29527;55.766;37.570;2024-01-27T01:11:00;34.28;;;17.65;;
37791;SDS011;29527;55.766;37.570;2024-01-27T01:13:26;30.75;;;15.95;;
37791;SDS011;29527;55.766;37.570;2024-01-27T01:15:51;30.38;;;17.33;;
37791;SDS011;29527;55.766;37.570;2024-01-27T01:18:16;31.42;;;17.63;;
37791;SDS011;29527;55.766;37.570;2024-01-27T01:20:42;32.97;;;17.33;;
37791;SDS011;29527;55.766;37.570;2024-01-27T01:23:07;33.22;;;18.25;;
37791;SDS011;29527;55.766;37.570;2024-01-27T01:25:33;32.88;;;17.27;;
37791;SDS011;29527;55.766;37.570;2024-01-27T01:27:58;30.40;;;18.23;;
37791;SDS011;29527;55.766;37.570;2024-01-27T01:30:23;35.50;;;18.50;;
37791;SDS011;29527;55.766;37.570;2024-01-27T01:32:49;32.08;;;18.20;;
37791;SDS011;29527;55.766;37.570;2024-01-27T01:35:15;32.35;;;18.67;;
37791;SDS011;29527;55.766;37.570;2024-01-27T01:37:40;34.03;;;17.80;;
37791;SDS011;29527;55.766;37.570;2024-01-27T01:40:06;27.00;;;14.93;;
37791;SDS011;29527;55.766;37.570;2024-01-27T01:42:33;29.15;;;16.42;;
37791;SDS011;29527;55.766;37.570;2024-01-27T01:44:58;30.13;;;15.45;;
37791;SDS011;29527;55.766;37.570;2024-01-27T01:47:23;27.83;;;14.75;;
37791;SDS011;29527;55.766;37.570;2024-01-27T01:49:50;26.98;;;15.38;;
37791;SDS011;29527;55.766;37.570;2024-01-27T01:52:15;27.02;;;14.75;;
37791;SDS011;29527;55.766;37.570;2024-01-27T01:54:48;25.05;;;14.07;;
37791;SDS011;29527;55.766;37.570;2024-01-27T01:57:15;18.80;;;10.10;;
37791;SDS011;29527;55.766;37.570;2024-01-27T01:59:41;27.83;;;14.57;;
37791;SDS011;29527;55.766;37.570;2024-01-27T02:02:09;27.13;;;14.55;;
37791;SDS011;29527;55.766;37.570;2024-01-27T02:04:44;27.25;;;14.57;;
37791;SDS011;29527;55.766;37.570;2024-01-27T02:07:13;28.85;;;15.48;;
37791;SDS011;29527;55.766;37.570;2024-01-27T02:09:39;30.95;;;15.50;;
37791;SDS011;29527;55.766;37.570;2024-01-27T02:12:04;28.52;;;15.30;;
37791;SDS011;29527;55.766;37.570;2024-01-27T02:14:30;29.67;;;15.52;;
37791;SDS011;29527;55.766;37.570;2024-01-27T02:16:56;27.05;;;15.52;;
37791;SDS011;29527;55.766;37.570;2024-01-27T02:19:22;27.70;;;16.05;;
37791;SDS011;29527;55.766;37.570;2024-01-27T02:21:47;25.92;;;15.30;;
37791;SDS011;29527;55.766;37.570;2024-01-27T02:24:13;31.00;;;16.65;;
37791;SDS011;29527;55.766;37.570;2024-01-27T02:26:38;29.45;;;17.00;;
37791;SDS011;29527;55.766;37.570;2024-01-27T02:29:03;28.08;;;16.05;;
37791;SDS011;29527;55.766;37.570;2024-01-27T02:31:29;29.45;;;16.13;;
37791;SDS011;29527;55.766;37.570;2024-01-27T02:33:54;29.45;;;16.25;;
37791;SDS011;29527;55.766;37.570;2024-01-27T02:36:20;33.08;;;17.17;;
37791;SDS011;29527;55.766;37.570;2024-01-27T02:38:45;36.85;;;18.95;;
37791;SDS011;29527;55.766;37.570;2024-01-27T02:41:11;45.13;;;23.15;;
37791;SDS011;29527;55.766;37.570;2024-01-27T02:43:37;37.72;;;17.98;;
37791;SDS011;29527;55.766;37.570;2024-01-27T02:46:03;40.90;;;21.55;;
37791;SDS011;29527;55.766;37.570;2024-01-27T02:48:31;27.90;;;16.17;;
37791;SDS011;29527;55.766;37.570;2024-01-27T02:50:57;29.58;;;16.55;;
37791;SDS011;29527;55.766;37.570;2024-01-27T02:53:22;30.05;;;15.85;;
37791;SDS011;29527;55.766;37.570;2024-01-27T02:55:47;32.05;;;16.80;;
37791;SDS011;29527;55.766;37.570;2024-01-27T02:58:13;29.77;;;15.73;;
37791;SDS011;29527;55.766;37.570;2024-01-27T03:00:38;21.45;;;11.93;;
37791;SDS011;29527;55.766;37.570;2024-01-27T03:03:04;25.60;;;13.23;;
37791;SDS011;29527;55.766;37.570;2024-01-27T03:05:30;20.25;;;10.70;;
37791;SDS011;29527;55.766;37.570;2024-01-27T03:07:55;23.23;;;12.40;;
37791;SDS011;29527;55.766;37.570;2024-01-27T03:10:21;23.63;;;12.25;;
37791;SDS011;29527;55.766;37.570;2024-01-27T03:12:46;26.58;;;12.25;;
37791;SDS011;29527;55.766;37.570;2024-01-27T03:15:11;30.17;;;15.55;;
37791;SDS011;29527;55.766;37.570;2024-01-27T03:17:37;28.25;;;14.63;;
37791;SDS011;29527;55.766;37.570;2024-01-27T03:20:02;26.00;;;13.63;;
37791;SDS011;29527;55.766;37.570;2024-01-27T03:22:28;25.48;;;13.48;;
37791;SDS011;29527;55.766;37.570;2024-01-27T03:24:54;22.95;;;12.48;;
37791;SDS011;29527;55.766;37.570;2024-01-27T03:27:20;20.48;;;11.57;;
37791;SDS011;29527;55.766;37.570;2024-01-27T03:29:45;16.73;;;9.23;;
37791;SDS011;29527;55.766;37.570;2024-01-27T03:32:11;14.02;;;7.65;;
37791;SDS011;29527;55.766;37.570;2024-01-27T03:34:37;17.40;;;10.35;;
37791;SDS011;29527;55.766;37.570;2024-01-27T03:37:08;16.35;;;8.20;;
37791;SDS011;29527;55.766;37.570;2024-01-27T03:39:33;14.93;;;9.05;;
37791;SDS011;29527;55.766;37.570;2024-01-27T03:41:59;15.07;;;8.35;;
37791;SDS011;29527;55.766;37.570;2024-01-27T03:44:25;16.92;;;9.63;;
37791;SDS011;29527;55.766;37.570;2024-01-27T03:46:50;19.73;;;9.50;;
37791;SDS011;29527;55.766;37.570;2024-01-27T03:49:16;14.00;;;8.38;;
37791;SDS011;29527;55.766;37.570;2024-01-27T03:51:41;17.77;;;9.02;;
37791;SDS011;29527;55.766;37.570;2024-01-27T03:54:07;16.20;;;9.63;;
37791;SDS011;29527;55.766;37.570;2024-01-27T03:56:32;20.23;;;9.60;;
37791;SDS011;29527;55.766;37.570;2024-01-27T03:58:57;17.67;;;9.40;;
37791;SDS011;29527;55.766;37.570;2024-01-27T04:01:23;14.68;;;8.73;;
37791;SDS011;29527;55.766;37.570;2024-01-27T04:03:48;14.63;;;8.30;;
37791;SDS011;29527;55.766;37.570;2024-01-27T04:06:14;17.70;;;9.25;;
37791;SDS011;29527;55.766;37.570;2024-01-27T04:08:40;15.57;;;9.20;;
37791;SDS011;29527;55.766;37.570;2024-01-27T04:11:08;18.20;;;10.40;;
37791;SDS011;29527;55.766;37.570;2024-01-27T04:13:35;20.08;;;11.05;;
37791;SDS011;29527;55.766;37.570;2024-01-27T04:16:01;18.13;;;9.73;;
37791;SDS011;29527;55.766;37.570;2024-01-27T04:18:26;14.75;;;8.02;;
37791;SDS011;29527;55.766;37.570;2024-01-27T04:20:52;19.48;;;10.98;;
37791;SDS011;29527;55.766;37.570;2024-01-27T04:23:17;18.67;;;10.40;;
37791;SDS011;29527;55.766;37.570;2024-01-27T04:25:43;23.58;;;12.30;;
37791;SDS011;29527;55.766;37.570;2024-01-27T04:28:09;21.67;;;12.82;;
37791;SDS011;29527;55.766;37.570;2024-01-27T04:30:37;24.45;;;13.23;;
37791;SDS011;29527;55.766;37.570;2024-01-27T04:33:02;20.13;;;11.60;;
37791;SDS011;29527;55.766;37.570;2024-01-27T04:35:28;23.67;;;12.13;;
37791;SDS011;29527;55.766;37.570;2024-01-27T04:37:54;25.00;;;12.43;;
37791;SDS011;29527;55.766;37.570;2024-01-27T04:40:19;26.65;;;13.13;;
37791;SDS011;29527;55.766;37.570;2024-01-27T04:42:45;22.92;;;12.35;;
37791;SDS011;29527;55.766;37.570;2024-01-27T04:45:14;22.92;;;12.98;;
37791;SDS011;29527;55.766;37.570;2024-01-27T04:47:40;24.02;;;12.65;;
37791;SDS011;29527;55.766;37.570;2024-01-27T04:50:05;20.23;;;11.90;;
37791;SDS011;29527;55.766;37.570;2024-01-27T04:52:31;23.20;;;12.00;;
37791;SDS011;29527;55.766;37.570;2024-01-27T04:54:56;23.30;;;12.18;;
37791;SDS011;29527;55.766;37.570;2024-01-27T04:57:22;21.50;;;12.43;;
37791;SDS011;29527;55.766;37.570;2024-01-27T04:59:47;25.30;;;12.65;;
37791;SDS011;29527;55.766;37.570;2024-01-27T05:02:13;24.38;;;13.40;;
37791;SDS011;29527;55.766;37.570;2024-01-27T05:04:39;26.70;;;14.13;;
37791;SDS011;29527;55.766;37.570;2024-01-27T05:07:04;26.52;;;13.20;;
37791;SDS011;29527;55.766;37.570;2024-01-27T05:09:30;32.85;;;14.98;;
37791;SDS011;29527;55.766;37.570;2024-01-27T05:11:55;25.27;;;13.57;;
37791;SDS011;29527;55.766;37.570;2024-01-27T05:14:20;22.30;;;13.45;;
37791;SDS011;29527;55.766;37.570;2024-01-27T05:16:46;24.13;;;14.10;;
37791;SDS011;29527;55.766;37.570;2024-01-27T05:19:11;31.00;;;14.20;;
37791;SDS011;29527;55.766;37.570;2024-01-27T05:21:40;25.75;;;13.85;;
37791;SDS011;29527;55.766;37.570;2024-01-27T05:24:05;25.67;;;13.88;;
37791;SDS011;29527;55.766;37.570;2024-01-27T05:26:30;28.75;;;14.15;;
37791;SDS011;29527;55.766;37.570;2024-01-27T05:28:56;28.45;;;15.43;;
37791;SDS011;29527;55.766;37.570;2024-01-27T05:31:21;27.20;;;14.02;;
37791;SDS011;29527;55.766;37.570;2024-01-27T05:33:47;23.60;;;13.40;;
37791;SDS011;29527;55.766;37.570;2024-01-27T05:36:12;27.63;;;14.77;;
37791;SDS011;29527;55.766;37.570;2024-01-27T05:38:37;25.77;;;14.10;;
37791;SDS011;29527;55.766;37.570;2024-01-27T05:41:03;28.48;;;14.30;;
37791;SDS011;29527;55.766;37.570;2024-01-27T05:43:29;25.65;;;13.85;;
37791;SDS011;29527;55.766;37.570;2024-01-27T05:45:54;28.63;;;14.63;;
37791;SDS011;29527;55.766;37.570;2024-01-27T05:48:20;27.45;;;14.93;;
37791;SDS011;29527;55.766;37.570;2024-01-27T05:50:55;24.52;;;13.95;;
37791;SDS011;29527;55.766;37.570;2024-01-27T05:53:21;22.80;;;12.13;;
37791;SDS011;29527;55.766;37.570;2024-01-27T05:55:47;30.10;;;15.27;;
37791;SDS011;29527;55.766;37.570;2024-01-27T05:58:12;28.80;;;15.15;;
37791;SDS011;29527;55.766;37.570;2024-01-27T06:00:38;28.85;;;14.70;;
37791;SDS011;29527;55.766;37.570;2024-01-27T06:03:03;27.40;;;14.55;;
37791;SDS011;29527;55.766;37.570;2024-01-27T06:05:29;27.63;;;15.05;;
37791;SDS011;29527;55.766;37.570;2024-01-27T06:07:54;23.65;;;13.77;;
37791;SDS011;29527;55.766;37.570;2024-01-27T06:10:20;25.15;;;14.10;;
37791;SDS011;29527;55.766;37.570;2024-01-27T06:12:45;25.67;;;13.27;;
37791;SDS011;29527;55.766;37.570;2024-01-27T06:15:11;27.10;;;14.70;;
37791;SDS011;29527;55.766;37.570;2024-01-27T06:17:36;31.27;;;15.00;;
37791;SDS011;29527;55.766;37.570;2024-01-27T06:20:02;30.10;;;15.52;;
37791;SDS011;29527;55.766;37.570;2024-01-27T06:22:29;27.88;;;14.10;;
37791;SDS011;29527;55.766;37.570;2024-01-27T06:24:57;25.67;;;15.00;;
37791;SDS011;29527;55.766;37.570;2024-01-27T06:27:22;26.67;;;14.55;;
37791;SDS011;29527;55.766;37.570;2024-01-27T06:29:47;33.58;;;16.02;;
37791;SDS011;29527;55.766;37.570;2024-01-27T06:32:13;33.63;;;16.35;;
37791;SDS011;29527;55.766;37.570;2024-01-27T06:34:38;26.17;;;13.40;;
37791;SDS011;29527;55.766;37.570;2024-01-27T06:37:04;23.52;;;13.13;;
37791;SDS011;29527;55.766;37.570;2024-01-27T06:39:30;26.58;;;14.10;;
37791;SDS011;29527;55.766;37.570;2024-01-27T06:41:55;28.65;;;15.07;;
37791;SDS011;29527;55.766;37.570;2024-01-27T06:44:21;28.48;;;15.85;;
37791;SDS011;29527;55.766;37.570;2024-01-27T06:46:47;29.20;;;14.75;;
37791;SDS011;29527;55.766;37.570;2024-01-27T06:49:15;30.02;;;15.63;;
37791;SDS011;29527;55.766;37.570;2024-01-27T06:51:41;32.15;;;14.95;;
37791;SDS011;29527;55.766;37.570;2024-01-27T06:54:07;30.23;;;14.30;;
37791;SDS011;29527;55.766;37.570;2024-01-27T06:56:32;29.73;;;16.65;;
37791;SDS011;29527;55.766;37.570;2024-01-27T06:58:58;29.65;;;15.02;;
37791;SDS011;29527;55.766;37.570;2024-01-27T07:01:24;30.65;;;16.35;;
37791;SDS011;29527;55.766;37.570;2024-01-27T07:03:49;28.88;;;15.15;;
37791;SDS011;29527;55.766;37.570;2024-01-27T07:06:14;32.63;;;17.35;;
37791;SDS011;29527;55.766;37.570;2024-01-27T07:08:40;31.08;;;16.65;;
37791;SDS011;29527;55.766;37.570;2024-01-27T07:11:05;37.97;;;17.58;;
37791;SDS011;29527;55.766;37.570;2024-01-27T07:13:30;35.13;;;17.73;;
37791;SDS011;29527;55.766;37.570;2024-01-27T07:15:56;33.33;;;16.75;;
37791;SDS011;29527;55.766;37.570;2024-01-27T07:18:23;30.75;;;16.90;;
37791;SDS011;29527;55.766;37.570;2024-01-27T07:20:49;29.83;;;15.93;;
37791;SDS011;29527;55.766;37.570;2024-01-27T07:23:14;32.65;;;15.10;;
37791;SDS011;29527;55.766;37.570;2024-01-27T07:25:40;34.05;;;17.13;;
37791;SDS011;29527;55.766;37.570;2024-01-27T07:28:05;27.92;;;14.60;;
37791;SDS011;29527;55.766;37.570;2024-01-27T07:30:30;37.40;;;18.13;;
37791;SDS011;29527;55.766;37.570;2024-01-27T07:32:56;35.17;;;17.00;;
37791;SDS011;29527;55.766;37.570;2024-01-27T07:35:22;39.22;;;18.33;;
37791;SDS011;29527;55.766;37.570;2024-01-27T07:37:47;34.08;;;16.05;;
37791;SDS011;29527;55.766;37.570;2024-01-27T07:40:12;33.38;;;17.13;;
37791;SDS011;29527;55.766;37.570;2024-01-27T07:42:38;35.03;;;17.20;;
37791;SDS011;29527;55.766;37.570;2024-01-27T07:45:04;33.85;;;17.20;;
37791;SDS011;29527;55.766;37.570;2024-01-27T07:47:30;33.60;;;16.02;;
37791;SDS011;29527;55.766;37.570;2024-01-27T07:49:55;37.00;;;17.23;;
37791;SDS011;29527;55.766;37.570;2024-01-27T07:52:20;31.70;;;15.48;;
37791;SDS011;29527;55.766;37.570;2024-01-27T07:54:46;35.75;;;16.67;;
37791;SDS011;29527;55.766;37.570;2024-01-27T07:57:11;32.78;;;15.90;;
37791;SDS011;29527;55.766;37.570;2024-01-27T07:59:37;30.67;;;15.43;;
37791;SDS011;29527;55.766;37.570;2024-01-27T08:02:03;29.38;;;16.52;;
37791;SDS011;29527;55.766;37.570;2024-01-27T08:04:29;31.48;;;16.38;;
37791;SDS011;29527;55.766;37.570;2024-01-27T08:06:55;36.90;;;17.20;;
37791;SDS011;29527;55.766;37.570;2024-01-27T08:09:20;37.22;;;18.88;;
37791;SDS011;29527;55.766;37.570;2024-01-27T08:11:46;43.58;;;19.65;;
37791;SDS011;29527;55.766;37.570;2024-01-27T08:14:16;36.28;;;18.10;;
37791;SDS011;29527;55.766;37.570;2024-01-27T08:16:41;39.55;;;20.67;;
37791;SDS011;29527;55.766;37.570;2024-01-27T08:19:08;40.38;;;19.73;;
37791;SDS011;29527;55.766;37.570;2024-01-27T08:21:33;44.63;;;20.63;;
37791;SDS011;29527;55.766;37.570;2024-01-27T08:23:59;44.80;;;20.33;;
37791;SDS011;29527;55.766;37.570;2024-01-27T08:26:24;44.20;;;20.48;;
37791;SDS011;29527;55.766;37.570;2024-01-27T08:28:50;39.63;;;19.55;;
37791;SDS011;29527;55.766;37.570;2024-01-27T08:31:15;36.42;;;19.10;;
37791;SDS011;29527;55.766;37.570;2024-01-27T08:33:41;36.75;;;18.55;;
37791;SDS011;29527;55.766;37.570;2024-01-27T08:36:06;37.53;;;18.50;;
37791;SDS011;29527;55.766;37.570;2024-01-27T08:38:32;36.67;;;18.67;;
37791;SDS011;29527;55.766;37.570;2024-01-27T08:40:57;33.15;;;17.35;;
37791;SDS011;29527;55.766;37.570;2024-01-27T08:43:23;35.97;;;17.20;;
37791;SDS011;29527;55.766;37.570;2024-01-27T08:45:48;38.95;;;18.10;;
37791;SDS011;29527;55.766;37.570;2024-01-27T08:48:14;41.97;;;18.05;;
37791;SDS011;29527;55.766;37.570;2024-01-27T08:50:40;40.28;;;18.45;;
37791;SDS011;29527;55.766;37.570;2024-01-27T08:53:05;37.33;;;18.75;;
37791;SDS011;29527;55.766;37.570;2024-01-27T08:55:31;37.90;;;18.63;;
37791;SDS011;29527;55.766;37.570;2024-01-27T08:57:56;35.17;;;18.23;;
37791;SDS011;29527;55.766;37.570;2024-01-27T09:00:22;35.90;;;18.85;;
37791;SDS011;29527;55.766;37.570;2024-01-27T09:02:47;36.47;;;18.50;;
37791;SDS011;29527;55.766;37.570;2024-01-27T09:05:13;30.98;;;16.60;;
37791;SDS011;29527;55.766;37.570;2024-01-27T09:07:38;36.63;;;18.20;;
37791;SDS011;29527;55.766;37.570;2024-01-27T09:10:04;37.45;;;17.85;;
37791;SDS011;29527;55.766;37.570;2024-01-27T09:12:30;40.53;;;19.55;;
37791;SDS011;29527;55.766;37.570;2024-01-27T09:14:55;39.80;;;19.70;;
37791;SDS011;29527;55.766;37.570;2024-01-27T09:17:21;41.28;;;19.02;;
37791;SDS011;29527;55.766;37.570;2024-01-27T09:19:46;49.30;;;19.83;;
37791;SDS011;29527;55.766;37.570;2024-01-27T09:22:12;45.60;;;19.10;;
37791;SDS011;29527;55.766;37.570;2024-01-27T09:24:37;38.70;;;18.23;;
37791;SDS011;29527;55.766;37.570;2024-01-27T09:27:03;41.90;;;19.60;;
37791;SDS011;29527;55.766;37.570;2024-01-27T09:29:29;46.83;;;20.35;;
37791;SDS011;29527;55.766;37.570;2024-01-27T09:31:54;46.53;;;19.63;;
37791;SDS011;29527;55.766;37.570;2024-01-27T09:34:20;36.78;;;18.48;;
37791;SDS011;29527;55.766;37.570;2024-01-27T09:36:45;37.90;;;19.00;;
37791;SDS011;29527;55.766;37.570;2024-01-27T09:39:11;40.08;;;19.92;;
37791;SDS011;29527;55.766;37.570;2024-01-27T09:41:36;39.63;;;19.75;;
37791;SDS011;29527;55.766;37.570;2024-01-27T09:44:03;43.67;;;19.38;;
37791;SDS011;29527;55.766;37.570;2024-01-27T09:46:30;39.58;;;18.20;;
37791;SDS011;29527;55.766;37.570;2024-01-27T09:48:56;34.83;;;17.38;;
37791;SDS011;29527;55.766;37.570;2024-01-27T09:51:22;36.85;;;18.02;;
37791;SDS011;29527;55.766;37.570;2024-01-27T09:53:48;38.15;;;18.42;;
37791;SDS011;29527;55.766;37.570;2024-01-27T09:56:16;33.90;;;17.30;;
37791;SDS011;29527;55.766;37.570;2024-01-27T09:58:44;34.50;;;17.20;;
37791;SDS011;29527;55.766;37.570;2024-01-27T10:01:10;31.88;;;17.35;;
37791;SDS011;29527;55.766;37.570;2024-01-27T10:03:38;28.67;;;15.30;;
37791;SDS011;29527;55.766;37.570;2024-01-27T10:06:07;27.98;;;15.35;;
37791;SDS011;29527;55.766;37.570;2024-01-27T10:08:34;29.67;;;15.43;;
37791;SDS011;29527;55.766;37.570;2024-01-27T10:10:59;29.65;;;15.90;;
37791;SDS011;29527;55.766;37.570;2024-01-27T10:13:25;28.00;;;15.63;;
37791;SDS011;29527;55.766;37.570;2024-01-27T10:16:04;30.38;;;16.27;;
37791;SDS011;29527;55.766;37.570;2024-01-27T10:18:31;28.02;;;15.20;;
37791;SDS011;29527;55.766;37.570;2024-01-27T10:20:58;29.90;;;15.00;;
37791;SDS011;29527;55.766;37.570;2024-01-27T10:23:23;25.52;;;13.52;;
37791;SDS011;29527;55.766;37.570;2024-01-27T10:25:49;25.02;;;13.90;;
37791;SDS011;29527;55.766;37.570;2024-01-27T10:28:15;27.67;;;13.82;;
37791;SDS011;29527;55.766;37.570;2024-01-27T10:30:40;30.55;;;15.85;;
37791;SDS011;29527;55.766;37.570;2024-01-27T10:33:09;31.80;;;16.67;;
37791;SDS011;29527;55.766;37.570;2024-01-27T10:35:35;40.03;;;17.70;;
37791;SDS011;29527;55.766;37.570;2024-01-27T10:38:01;34.97;;;18.42;;
37791;SDS011;29527;55.766;37.570;2024-01-27T10:40:27;34.33;;;17.77;;
37791;SDS011;29527;55.766;37.570;2024-01-27T10:43:14;32.30;;;18.25;;
37791;SDS011;29527;55.766;37.570;2024-01-27T10:45:40;35.38;;;17.90;;
37791;SDS011;29527;55.766;37.570;2024-01-27T10:48:09;43.35;;;19.67;;
37791;SDS011;29527;55.766;37.570;2024-01-27T10:50:36;36.55;;;19.02;;
37791;SDS011;29527;55.766;37.570;2024-01-27T10:53:04;37.15;;;18.30;;
37791;SDS011;29527;55.766;37.570;2024-01-27T10:55:34;35.80;;;18.40;;
37791;SDS011;29527;55.766;37.570;2024-01-27T10:58:02;39.05;;;20.75;;
37791;SDS011;29527;55.766;37.570;2024-01-27T11:00:28;41.42;;;22.80;;
37791;SDS011;29527;55.766;37.570;2024-01-27T11:02:59;40.42;;;21.73;;
37791;SDS011;29527;55.766;37.570;2024-01-27T11:05:28;42.88;;;22.33;;
37791;SDS011;29527;55.766;37.570;2024-01-27T11:07:57;37.63;;;20.35;;
37791;SDS011;29527;55.766;37.570;2024-01-27T11:10:24;37.90;;;20.88;;
37791;SDS011;29527;55.766;37.570;2024-01-27T11:12:51;36.75;;;20.17;;
37791;SDS011;29527;55.766;37.570;2024-01-27T11:15:20;40.03;;;19.98;;
37791;SDS011;29527;55.766;37.570;2024-01-27T11:17:46;37.10;;;19.33;;
37791;SDS011;29527;55.766;37.570;2024-01-27T11:20:12;37.38;;;19.55;;
37791;SDS011;29527;55.766;37.570;2024-01-27T11:22:38;34.95;;;19.13;;
37791;SDS011;29527;55.766;37.570;2024-01-27T11:25:22;40.85;;;19.52;;
37791;SDS011;29527;55.766;37.570;2024-01-27T11:27:48;37.97;;;19.08;;
37791;SDS011;29527;55.766;37.570;2024-01-27T11:30:30;40.85;;;19.58;;
37791;SDS011;29527;55.766;37.570;2024-01-27T11:33:00;35.27;;;18.43;;
37791;SDS011;29527;55.766;37.570;2024-01-27T11:35:28;35.92;;;18.73;;
37791;SDS011;29527;55.766;37.570;2024-01-27T11:37:54;37.95;;;19.45;;
37791;SDS011;29527;55.766;37.570;2024-01-27T11:40:19;49.67;;;20.45;;
37791;SDS011;29527;55.766;37.570;2024-01-27T11:42:55;39.40;;;19.48;;
37791;SDS011;29527;55.766;37.570;2024-01-27T11:45:27;43.80;;;18.38;;
37791;SDS011;29527;55.766;37.570;2024-01-27T11:47:55;42.80;;;20.75;;
37791;SDS011;29527;55.766;37.570;2024-01-27T11:50:21;39.00;;;21.35;;
37791;SDS011;29527;55.766;37.570;2024-01-27T11:52:47;42.17;;;21.83;;
37791;SDS011;29527;55.766;37.570;2024-01-27T11:55:12;37.17;;;20.67;;
37791;SDS011;29527;55.766;37.570;2024-01-27T11:57:40;41.70;;;20.50;;
37791;SDS011;29527;55.766;37.570;2024-01-27T12:00:07;40.05;;;20.85;;
37791;SDS011;29527;55.766;37.570;2024-01-27T12:02:34;30.95;;;15.77;;
37791;SDS011;29527;55.766;37.570;2024-01-27T12:05:00;32.65;;;17.23;;
37791;SDS011;29527;55.766;37.570;2024-01-27T12:07:26;32.78;;;16.42;;
37791;SDS011;29527;55.766;37.570;2024-01-27T12:09:51;33.65;;;17.65;;
37791;SDS011;29527;55.766;37.570;2024-01-27T12:12:17;40.28;;;18.83;;
37791;SDS011;29527;55.766;37.570;2024-01-27T12:14:46;36.88;;;19.58;;
37791;SDS011;29527;55.766;37.570;2024-01-27T12:17:15;37.55;;;18.92;;
37791;SDS011;29527;55.766;37.570;2024-01-27T12:19:48;29.48;;;17.75;;
37791;SDS011;29527;55.766;37.570;2024-01-27T12:22:21;40.30;;;19.42;;
37791;SDS011;29527;55.766;37.570;2024-01-27T12:24:53;32.42;;;19.08;;
37791;SDS011;29527;55.766;37.570;2024-01-27T12:27:21;37.55;;;18.90;;
37791;SDS011;29527;55.766;37.570;2024-01-27T12:29:47;32.50;;;19.50;;
37791;SDS011;29527;55.766;37.570;2024-01-27T12:32:14;33.50;;;18.02;;
37791;SDS011;29527;55.766;37.570;2024-01-27T12:34:41;33.45;;;18.33;;
37791;SDS011;29527;55.766;37.570;2024-01-27T12:37:08;31.95;;;18.23;;
37791;SDS011;29527;55.766;37.570;2024-01-27T12:39:35;32.33;;;17.85;;
37791;SDS011;29527;55.766;37.570;2024-01-27T12:42:01;30.90;;;17.90;;
37791;SDS011;29527;55.766;37.570;2024-01-27T12:44:26;39.30;;;19.75;;
37791;SDS011;29527;55.766;37.570;2024-01-27T12:46:52;34.85;;;19.23;;
37791;SDS011;29527;55.766;37.570;2024-01-27T12:49:17;37.08;;;19.55;;
37791;SDS011;29527;55.766;37.570;2024-01-27T12:51:44;43.90;;;19.45;;
37791;SDS011;29527;55.766;37.570;2024-01-27T12:54:10;36.70;;;18.83;;
37791;SDS011;29527;55.766;37.570;2024-01-27T12:56:36;38.80;;;19.23;;
37791;SDS011;29527;55.766;37.570;2024-01-27T12:59:02;31.00;;;16.92;;
37791;SDS011;29527;55.766;37.570;2024-01-27T13:01:27;36.88;;;19.00;;
37791;SDS011;29527;55.766;37.570;2024-01-27T13:03:53;33.10;;;18.25;;
37791;SDS011;29527;55.766;37.570;2024-01-27T13:06:18;45.13;;;18.38;;
37791;SDS011;29527;55.766;37.570;2024-01-27T13:08:44;38.92;;;18.95;;
37791;SDS011;29527;55.766;37.570;2024-01-27T13:11:09;40.60;;;19.80;;
37791;SDS011;29527;55.766;37.570;2024-01-27T13:13:37;36.10;;;18.25;;
37791;SDS011;29527;55.766;37.570;2024-01-27T13:16:03;35.22;;;18.92;;
37791;SDS011;29527;55.766;37.570;2024-01-27T13:18:28;36.47;;;18.75;;
37791;SDS011;29527;55.766;37.570;2024-01-27T13:20:54;34.45;;;18.60;;
37791;SDS011;29527;55.766;37.570;2024-01-27T13:23:19;30.98;;;17.63;;
37791;SDS011;29527;55.766;37.570;2024-01-27T13:25:45;38.65;;;19.60;;
37791;SDS011;29527;55.766;37.570;2024-01-27T13:28:11;38.17;;;19.20;;
37791;SDS011;29527;55.766;37.570;2024-01-27T13:30:37;38.75;;;19.35;;
37791;SDS011;29527;55.766;37.570;2024-01-27T13:33:03;38.13;;;18.50;;
37791;SDS011;29527;55.766;37.570;2024-01-27T13:35:28;39.42;;;19.75;;
37791;SDS011;29527;55.766;37.570;2024-01-27T13:37:54;34.72;;;18.75;;
37791;SDS011;29527;55.766;37.570;2024-01-27T13:40:19;38.30;;;19.05;;
37791;SDS011;29527;55.766;37.570;2024-01-27T13:42:45;36.85;;;19.63;;
37791;SDS011;29527;55.766;37.570;2024-01-27T13:45:10;40.08;;;19.05;;
37791;SDS011;29527;55.766;37.570;2024-01-27T13:47:36;36.90;;;19.73;;
37791;SDS011;29527;55.766;37.570;2024-01-27T13:50:02;38.75;;;19.98;;
37791;SDS011;29527;55.766;37.570;2024-01-27T13:52:29;36.85;;;17.30;;
37791;SDS011;29527;55.766;37.570;2024-01-27T13:54:54;43.65;;;19.67;;
37791;SDS011;29527;55.766;37.570;2024-01-27T13:57:20;34.42;;;18.88;;
37791;SDS011;29527;55.766;37.570;2024-01-27T13:59:46;35.30;;;19.52;;
37791;SDS011;29527;55.766;37.570;2024-01-27T14:02:11;39.17;;;18.38;;